Time;durP1;ratioP1;P1;durP2;ratioP2;P2;SDS_P1;SDS_P2;PMS_P1;PMS_P2;Temp;Humidity;BMP_temperature;BMP_pressure;BME280_temperature;BME280_humidity;BME280_pressure;Samples;Min_cycle;Max_cycle;Signal;HPM_P1;HPM_P2
2023/06/17 00:09:20;;;;;;;3.95;3.53;;;;;;;26.94;42.45;100302.63;21085616;28;20093;-56
2023/06/17 00:19:22;;;;;;;4.35;3.90;;;;;;;26.94;42.62;100297.00;21086613;28;20097;-58
2023/06/17 00:29:24;;;;;;;4.03;3.40;;;;;;;26.89;42.49;100302.81;21084994;28;20513;-57
2023/06/17 00:39:25;;;;;;;3.67;3.28;;;;;;;26.92;42.42;100302.16;21084067;28;20093;-57
2023/06/17 00:49:35;;;;;;;3.72;3.30;;;;;;;26.90;42.59;100310.09;21083160;28;20066;-57
2023/06/17 00:59:42;;;;;;;3.65;3.30;;;;;;;26.77;42.24;100281.91;21082581;28;20066;-58
2023/06/17 01:09:50;;;;;;;3.50;3.20;;;;;;;26.89;42.46;100303.63;21082189;28;20043;-54
2023/06/17 01:19:59;;;;;;;3.83;3.45;;;;;;;26.80;42.53;100312.13;21081077;28;20402;-57
2023/06/17 01:30:04;;;;;;;4.35;3.60;;;;;;;26.92;42.56;100344.25;21079434;28;20097;-57
2023/06/17 01:40:09;;;;;;;3.65;3.30;;;;;;;26.92;42.71;100369.53;21079310;28;20081;-58
2023/06/17 01:50:10;;;;;;;3.45;3.15;;;;;;;26.89;42.43;100368.19;21078000;28;20476;-56
2023/06/17 02:00:13;;;;;;;4.05;3.65;;;;;;;26.92;42.42;100383.56;21078017;28;20036;-57
2023/06/17 02:10:14;;;;;;;3.40;3.10;;;;;;;26.92;42.34;100391.97;21076630;28;20036;-58
2023/06/17 02:20:16;;;;;;;4.25;3.55;;;;;;;26.88;42.35;100383.41;21076824;28;20028;-58
2023/06/17 02:30:17;;;;;;;3.58;3.28;;;;;;;26.83;42.45;100381.59;21076252;28;20065;-58
2023/06/17 02:40:19;;;;;;;3.47;3.17;;;;;;;26.89;42.43;100406.69;21074211;28;20044;-59
2023/06/17 02:50:23;;;;;;;4.68;3.55;;;;;;;26.92;42.39;100422.88;21075740;28;20070;-57
2023/06/17 03:00:24;;;;;;;3.50;3.20;;;;;;;26.84;42.33;100422.53;21075455;28;20040;-57
2023/06/17 03:10:26;;;;;;;3.67;3.38;;;;;;;26.84;42.31;100436.56;21075376;28;20442;-56
2023/06/17 03:20:28;;;;;;;3.70;3.40;;;;;;;26.88;42.58;100421.88;21075355;28;20024;-56
2023/06/17 03:30:29;;;;;;;4.30;3.58;;;;;;;26.90;42.37;100428.00;21091882;28;20047;-58
2023/06/17 03:40:31;;;;;;;3.85;3.42;;;;;;;26.88;42.27;100408.66;21089710;28;20037;-56
2023/06/17 03:50:32;;;;;;;3.92;3.53;;;;;;;26.89;42.55;100417.91;21088503;28;20090;-58
2023/06/17 04:00:35;;;;;;;4.30;3.90;;;;;;;26.87;42.46;100418.25;21088047;28;20081;-58
2023/06/17 04:10:36;;;;;;;3.90;3.50;;;;;;;26.83;42.27;100406.03;21086727;28;20044;-58
2023/06/17 04:20:40;;;;;;;3.58;3.22;;;;;;;26.86;42.43;100406.22;21086837;28;20036;-58
2023/06/17 04:30:45;;;;;;;3.45;3.15;;;;;;;26.89;42.42;100406.69;21085695;28;20074;-56
2023/06/17 04:40:47;;;;;;;3.50;3.20;;;;;;;26.88;42.65;100402.22;21084762;28;20044;-57
2023/06/17 04:50:48;;;;;;;3.88;3.40;;;;;;;26.88;42.36;100389.00;21084497;28;20113;-58
2023/06/17 05:00:49;;;;;;;3.58;3.22;;;;;;;26.74;42.64;100363.97;21083769;28;20032;-59
2023/06/17 05:10:52;;;;;;;3.65;3.33;;;;;;;26.85;42.59;100375.66;21081936;28;20039;-58
2023/06/17 05:20:53;;;;;;;3.60;3.30;;;;;;;26.85;42.56;100370.88;21082413;28;20109;-57
2023/06/17 05:30:55;;;;;;;3.88;3.47;;;;;;;26.88;42.35;100374.16;21081681;28;20048;-58
2023/06/17 05:40:56;;;;;;;4.30;3.90;;;;;;;26.86;42.56;100378.13;21080711;28;20047;-58
2023/06/17 05:50:58;;;;;;;4.20;3.80;;;;;;;26.85;42.45;100379.31;21078557;28;20548;-57
2023/06/17 06:00:59;;;;;;;4.13;3.72;;;;;;;26.81;42.67;100380.31;21078577;28;20454;-58
2023/06/17 06:11:01;;;;;;;4.03;3.63;;;;;;;26.85;42.72;100381.28;21078008;28;20036;-57
2023/06/17 06:21:05;;;;;;;4.45;4.05;;;;;;;26.84;42.43;100374.81;21077071;28;20090;-57
2023/06/17 06:31:07;;;;;;;4.22;3.83;;;;;;;26.83;42.52;100387.22;21076320;28;20128;-58
2023/06/17 06:41:08;;;;;;;4.28;3.92;;;;;;;26.84;42.61;100380.44;21076268;28;20032;-58
2023/06/17 06:51:09;;;;;;;4.07;3.67;;;;;;;26.81;42.52;100369.06;21075688;28;20040;-57
2023/06/17 07:01:11;;;;;;;4.53;4.13;;;;;;;26.80;42.39;100373.88;21087291;28;20039;-58
2023/06/17 07:11:14;;;;;;;3.90;3.60;;;;;;;26.78;42.39;100384.59;21091645;28;20085;-57
2023/06/17 07:21:19;;;;;;;4.20;3.80;;;;;;;26.80;42.47;100396.31;21090698;28;20117;-55
2023/06/17 07:31:20;;;;;;;4.32;3.92;;;;;;;26.76;42.44;100389.72;21089768;28;20044;-57
2023/06/17 07:41:22;;;;;;;4.28;3.88;;;;;;;26.78;42.32;100384.59;21089822;28;20048;-57
2023/06/17 07:51:23;;;;;;;4.47;4.07;;;;;;;26.80;42.60;100399.13;21088471;28;20423;-56
2023/06/17 08:01:25;;;;;;;4.10;3.75;;;;;;;26.80;42.60;100399.13;21088322;28;20120;-58
2023/06/17 08:11:26;;;;;;;5.10;4.35;;;;;;;26.80;42.54;100403.88;21087083;28;20128;-61
2023/06/17 08:21:27;;;;;;;4.32;3.92;;;;;;;26.78;42.51;100404.25;21086959;28;20066;-59
2023/06/17 08:31:30;;;;;;;4.35;3.92;;;;;;;26.76;42.34;100411.38;21085672;28;20117;-58
2023/06/17 08:41:40;;;;;;;4.45;4.05;;;;;;;26.76;42.38;100412.19;21084995;28;20036;-58
2023/06/17 08:51:49;;;;;;;4.68;4.20;;;;;;;26.76;42.60;100420.59;21083325;28;20441;-56
2023/06/17 09:01:52;;;;;;;5.35;4.22;;;;;;;26.76;42.71;100422.59;21083404;28;20047;-58
2023/06/17 09:12:01;;;;;;;5.95;4.32;;;;;;;26.75;42.58;100432.97;21082663;28;20047;-57
2023/06/17 09:22:08;;;;;;;5.72;4.47;;;;;;;26.67;42.73;100424.59;21082273;28;20040;-57
2023/06/17 09:32:10;;;;;;;4.68;4.28;;;;;;;26.73;42.59;100451.31;21080779;28;20062;-57
2023/06/17 09:42:14;;;;;;;4.65;4.10;;;;;;;26.65;42.55;100447.34;21080211;28;20032;-56
2023/06/17 09:52:15;;;;;;;4.65;4.25;;;;;;;26.68;42.62;100471.97;21080891;28;20558;-58
2023/06/17 10:02:17;;;;;;;5.38;4.88;;;;;;;26.70;42.75;100486.47;21080734;28;20125;-57
2023/06/17 10:12:22;;;;;;;5.18;4.68;;;;;;;26.69;42.63;100506.47;21077844;28;20055;-57
2023/06/17 10:22:25;;;;;;;5.22;4.72;;;;;;;26.69;42.76;100510.09;21077604;28;20070;-56
2023/06/17 10:32:27;;;;;;;5.13;4.63;;;;;;;26.69;42.80;100514.88;21076074;28;20044;-58
2023/06/17 10:42:28;;;;;;;5.80;5.13;;;;;;;26.65;42.52;100495.06;21075669;28;20044;-58
2023/06/17 10:52:32;;;;;;;5.78;5.05;;;;;;;26.63;42.60;100507.78;21076042;28;20024;-58
2023/06/17 11:02:37;;;;;;;5.60;4.93;;;;;;;26.67;42.34;100508.78;21076344;28;20081;-57
2023/06/17 11:12:39;;;;;;;5.88;5.25;;;;;;;26.63;42.58;100502.19;21074910;28;20055;-57
2023/06/17 11:22:41;;;;;;;5.18;4.68;;;;;;;26.65;42.79;100511.91;21074668;28;20105;-56
2023/06/17 11:32:43;;;;;;;6.38;5.10;;;;;;;26.64;42.50;100509.44;21074777;28;20055;-57
2023/06/17 11:42:46;;;;;;;5.60;5.03;;;;;;;26.62;42.54;100515.38;21074568;28;20035;-58
2023/06/17 11:52:56;;;;;;;6.10;5.40;;;;;;;26.54;42.51;100522.63;21088860;28;20549;-58
2023/06/17 12:02:58;;;;;;;6.07;5.47;;;;;;;26.63;42.23;100530.25;21087253;28;20114;-58
2023/06/17 12:12:59;;;;;;;6.47;5.38;;;;;;;26.62;42.57;100535.03;21087604;28;20066;-57
2023/06/17 12:23:01;;;;;;;5.95;5.35;;;;;;;26.59;42.41;100530.06;21086354;28;20040;-57
2023/06/17 12:33:02;;;;;;;5.07;4.68;;;;;;;26.60;42.42;100549.38;21085343;28;20123;-58
2023/06/17 12:43:04;;;;;;;6.30;5.70;;;;;;;26.60;42.29;100538.16;21084712;28;20364;-57
2023/06/17 12:53:08;;;;;;;5.90;5.05;;;;;;;26.59;42.25;100546.91;21083638;28;20074;-56
2023/06/17 13:03:12;;;;;;;6.07;5.47;;;;;;;26.47;42.45;100522.28;21083136;28;20035;-58
2023/06/17 13:13:14;;;;;;;5.90;5.30;;;;;;;26.59;42.36;100552.53;21082432;28;20048;-58
2023/06/17 13:23:18;;;;;;;6.28;5.68;;;;;;;26.55;42.42;100548.72;21081626;28;20073;-57
2023/06/17 13:33:19;;;;;;;6.25;5.65;;;;;;;26.59;42.30;100547.72;21080647;28;20040;-58
2023/06/17 13:43:21;;;;;;;6.65;5.93;;;;;;;26.59;42.36;100541.28;21079680;28;20039;-58
2023/06/17 13:53:25;;;;;;;7.32;6.50;;;;;;;26.52;42.48;100535.34;21078736;28;20036;-57
2023/06/17 14:03:26;;;;;;;8.35;6.75;;;;;;;26.58;42.29;100542.44;21078595;28;20028;-56
2023/06/17 14:13:28;;;;;;;7.93;7.13;;;;;;;26.54;42.49;100516.19;21076985;28;20043;-57
2023/06/17 14:23:29;;;;;;;7.85;7.05;;;;;;;26.57;42.46;100538.81;21076681;28;20117;-57
2023/06/17 14:33:32;;;;;;;8.52;7.72;;;;;;;26.59;42.34;100535.69;21076425;28;20040;-57
2023/06/17 14:43:35;;;;;;;7.90;7.10;;;;;;;26.57;42.40;100526.75;21075848;28;20044;-57
2023/06/17 14:53:40;;;;;;;10.07;9.02;;;;;;;26.46;42.51;100503.00;21075244;28;20105;-57
2023/06/17 15:03:41;;;;;;;9.63;8.27;;;;;;;26.56;42.54;100523.13;21075046;28;20040;-56
2023/06/17 15:13:43;;;;;;;9.32;8.40;;;;;;;26.58;42.67;100522.81;21073285;28;20395;-56
2023/06/17 15:23:45;;;;;;;9.75;8.75;;;;;;;26.58;42.52;100536.84;21088498;28;20120;-57
2023/06/17 15:33:46;;;;;;;11.20;10.00;;;;;;;26.60;42.23;100537.31;21089492;28;20044;-56
2023/06/17 15:43:48;;;;;;;11.23;10.10;;;;;;;26.44;42.47;100520.16;21088709;28;20040;-58
2023/06/17 15:53:49;;;;;;;11.93;10.52;;;;;;;26.60;42.37;100545.75;21088717;28;20043;-58
2023/06/17 16:03:50;;;;;;;13.98;11.48;;;;;;;26.57;42.30;100515.53;21087846;28;20402;-57
2023/06/17 16:13:56;;;;;;;12.55;10.80;;;;;;;26.60;42.26;100528.91;21087034;28;20062;-56
2023/06/17 16:23:57;;;;;;;13.00;11.13;;;;;;;26.58;42.31;100511.59;21086223;28;20090;-58
2023/06/17 16:33:58;;;;;;;14.55;13.00;;;;;;;26.47;42.32;100488.63;21085640;28;20036;-57
2023/06/17 16:44:01;;;;;;;14.77;13.13;;;;;;;26.61;42.37;100505.28;21084457;28;20093;-58
2023/06/17 16:54:02;;;;;;;14.18;12.68;;;;;;;26.62;42.25;100498.53;21083817;28;20386;-57
2023/06/17 17:04:10;;;;;;;14.65;13.07;;;;;;;26.59;42.25;100499.19;21081760;28;20036;-58
2023/06/17 17:14:11;;;;;;;15.45;13.85;;;;;;;26.63;42.37;100485.34;21082018;28;20040;-58
2023/06/17 17:24:16;;;;;;;15.23;13.57;;;;;;;26.61;42.38;100488.44;21081241;28;20437;-57
2023/06/17 17:34:20;;;;;;;17.90;14.95;;;;;;;26.63;42.24;100494.56;21080503;28;20044;-57
2023/06/17 17:44:21;;;;;;;18.95;16.83;;;;;;;26.63;42.13;100486.16;21078808;28;20108;-57
2023/06/17 17:54:23;;;;;;;16.38;14.25;;;;;;;26.65;42.33;100461.38;21079191;28;20060;-56
2023/06/17 18:04:25;;;;;;;18.65;16.30;;;;;;;26.63;42.28;100457.28;21078188;28;20036;-58
2023/06/17 18:14:26;;;;;;;17.60;15.73;;;;;;;26.55;42.19;100422.44;21077871;28;20074;-58
2023/06/17 18:24:27;;;;;;;18.33;16.33;;;;;;;26.65;42.49;100438.94;21077330;28;20132;-58
2023/06/17 18:34:29;;;;;;;19.08;16.67;;;;;;;26.65;42.15;100450.16;21076808;28;20048;-59
2023/06/17 18:44:30;;;;;;;18.02;16.13;;;;;;;26.64;42.28;100442.91;21076946;28;20039;-57
2023/06/17 18:54:32;;;;;;;18.40;16.15;;;;;;;26.65;42.58;100438.09;21083626;28;20051;-58
2023/06/17 19:04:36;;;;;;;17.67;15.75;;;;;;;26.66;42.32;100451.78;21092422;28;20106;-58
2023/06/17 19:14:37;;;;;;;19.00;16.95;;;;;;;26.67;42.47;100456.28;21092046;28;20479;-58
2023/06/17 19:24:39;;;;;;;18.58;16.40;;;;;;;26.67;42.28;100464.69;21091121;28;20468;-58
2023/06/17 19:34:40;;;;;;;17.55;15.75;;;;;;;26.64;42.43;100459.75;21090325;28;20403;-57
2023/06/17 19:44:44;;;;;;;21.25;18.02;;;;;;;26.68;42.43;100449.50;21089484;28;20117;-57
2023/06/17 19:54:48;;;;;;;17.42;15.45;;;;;;;26.69;42.52;100448.34;21088697;28;20044;-58
2023/06/17 20:04:50;;;;;;;19.63;17.45;;;;;;;26.70;42.55;100447.19;21086946;28;20420;-58
2023/06/17 20:14:51;;;;;;;19.88;17.15;;;;;;;26.69;42.24;100434.31;21086733;28;20109;-58
2023/06/17 20:24:53;;;;;;;18.65;16.52;;;;;;;26.69;42.56;100434.31;21086143;28;20036;-58
2023/06/17 20:34:54;;;;;;;19.70;16.80;;;;;;;26.67;42.53;100431.03;21084600;28;20124;-57
2023/06/17 20:44:56;;;;;;;19.52;17.08;;;;;;;26.67;42.38;100439.44;21084579;28;20036;-58
2023/06/17 20:54:57;;;;;;;19.25;16.85;;;;;;;26.71;42.53;100432.00;21083614;28;20048;-58
2023/06/17 21:04:59;;;;;;;18.90;16.70;;;;;;;26.72;42.41;100438.44;21082986;28;20024;-59
2023/06/17 21:15:00;;;;;;;18.60;16.52;;;;;;;26.57;42.35;100432.19;21082086;28;20055;-56
2023/06/17 21:25:01;;;;;;;19.95;16.70;;;;;;;26.71;42.39;100459.22;21081324;28;20074;-58
2023/06/17 21:35:03;;;;;;;19.45;16.42;;;;;;;26.71;42.31;100459.22;21080186;28;20051;-56
2023/06/17 21:45:05;;;;;;;17.80;15.90;;;;;;;26.65;42.40;100450.16;21079873;28;20560;-59
2023/06/17 21:55:06;;;;;;;17.48;15.50;;;;;;;26.56;42.49;100446.53;21078382;28;20069;-57
2023/06/17 22:05:10;;;;;;;17.48;15.68;;;;;;;26.73;42.46;100497.03;21078062;28;20047;-57
2023/06/17 22:15:12;;;;;;;18.75;16.73;;;;;;;26.73;42.64;100513.06;21077598;28;20039;-57
2023/06/17 22:25:14;;;;;;;19.13;16.60;;;;;;;26.73;42.46;100524.28;21076693;28;20047;-57
2023/06/17 22:35:15;;;;;;;18.30;16.10;;;;;;;26.75;42.56;100544.41;21076345;28;20070;-56
2023/06/17 22:45:19;;;;;;;18.45;16.52;;;;;;;26.74;42.47;100554.81;21076720;28;20039;-57
2023/06/17 22:55:22;;;;;;;19.55;16.42;;;;;;;26.73;42.44;100564.41;21075488;28;20040;-57
2023/06/17 23:05:24;;;;;;;17.15;15.15;;;;;;;26.73;42.39;100574.81;21075977;28;20552;-57
2023/06/17 23:15:25;;;;;;;17.63;15.75;;;;;;;26.69;42.48;100569.03;21074881;28;20039;-58
2023/06/17 23:25:26;;;;;;;17.65;15.75;;;;;;;26.76;42.24;100597.44;21074568;28;20471;-57
2023/06/17 23:35:30;;;;;;;16.70;14.88;;;;;;;26.78;42.08;100608.34;21074457;28;20484;-59
2023/06/17 23:45:34;;;;;;;18.33;15.75;;;;;;;26.77;42.22;100627.16;21088171;28;20040;-59
2023/06/17 23:55:36;;;;;;;17.48;15.55;;;;;;;26.77;42.34;100631.94;21088147;28;20051;-58
